Time,TemperatureF,DewpointF,PressureIn,WindDirection,WindDirectionDegrees,WindSpeedMPH,WindSpeedGustMPH,Humidity,HourlyPrecipIn,Conditions,Clouds,dailyrainin,SoftwareType,DateUTC
2013-03-10 00:01:00,28.0,27.0,-100.00,ENE,60,0.0,0.0,96,-99.99,,,-99.99,,2013-03-10 07:01:00,
2013-03-10 00:11:00,28.0,27.0,-100.00,ENE,60,0.0,0.0,96,-99.99,,,-99.99,,2013-03-10 07:11:00,
2013-03-10 00:21:00,27.0,26.0,-100.00,South,180,0.0,0.0,96,-99.99,,,-99.99,,2013-03-10 07:21:00,
2013-03-10 00:31:00,24.0,24.0,-100.00,WNW,295,0.0,0.0,96,-99.99,,,-99.99,,2013-03-10 07:31:00,
2013-03-10 00:41:00,24.0,24.0,-100.00,WNW,295,0.0,0.0,96,-99.99,,,-99.99,,2013-03-10 07:41:00,
2013-03-10 00:52:00,24.0,23.0,-100.00,SSW,205,0.0,0.0,96,-99.99,,,-99.99,,2013-03-10 07:52:00,
2013-03-10 01:01:00,24.0,23.0,-100.00,ENE,60,0.0,0.0,96,-99.99,,,-99.99,,2013-03-10 08:01:00,
2013-03-10 01:11:00,24.0,23.0,-100.00,ENE,60,0.0,0.0,96,-99.99,,,-99.99,,2013-03-10 08:11:00,
2013-03-10 01:21:00,23.0,22.0,-100.00,West,270,0.0,0.0,96,-99.99,,,-99.99,,2013-03-10 08:21:00,
2013-03-10 01:31:00,23.0,22.0,-100.00,West,270,0.0,0.0,96,-99.99,,,-99.99,,2013-03-10 08:31:00,
2013-03-10 01:42:00,22.0,22.0,-100.00,SSE,165,0.0,0.0,96,-99.99,,,-99.99,,2013-03-10 08:42:00,
2013-03-10 01:51:00,22.0,22.0,-100.00,SSE,165,0.0,0.0,96,-99.99,,,-99.99,,2013-03-10 08:51:00,
2013-03-10 03:01:00,21.0,20.0,-100.00,WSW,255,0.0,0.0,96,-99.99,,,-99.99,,2013-03-10 09:01:00,
2013-03-10 03:11:00,21.0,20.0,-100.00,WSW,255,0.0,0.0,96,-99.99,,,-99.99,,2013-03-10 09:11:00,
2013-03-10 03:21:00,22.0,21.0,-100.00,NE,55,0.0,0.0,96,-99.99,,,-99.99,,2013-03-10 09:21:00,
2013-03-10 03:31:00,22.0,21.0,-100.00,NE,55,0.0,0.0,96,-99.99,,,-99.99,,2013-03-10 09:31:00,
2013-03-10 03:41:00,21.0,20.0,-100.00,East,80,0.0,0.0,96,-99.99,,,-99.99,,2013-03-10 09:41:00,
2013-03-10 03:51:00,21.0,20.0,-100.00,East,80,0.0,0.0,96,-99.99,,,-99.99,,2013-03-10 09:51:00,
2013-03-10 04:01:00,21.0,20.0,-100.00,ENE,60,0.0,0.0,96,-99.99,,,-99.99,,2013-03-10 10:01:00,
2013-03-10 04:11:00,21.0,20.0,-100.00,ENE,60,0.0,0.0,96,-99.99,,,-99.99,,2013-03-10 10:11:00,
2013-03-10 04:21:00,20.0,19.0,-100.00,NE,40,0.0,0.0,96,-99.99,,,-99.99,,2013-03-10 10:21:00,
2013-03-10 04:31:00,20.0,19.0,-100.00,NE,40,0.0,0.0,96,-99.99,,,-99.99,,2013-03-10 10:31:00,
2013-03-10 04:41:00,20.0,19.0,-100.00,ENE,70,0.0,0.0,96,-99.99,,,-99.99,,2013-03-10 10:41:00,
2013-03-10 04:51:00,20.0,19.0,-100.00,ENE,75,0.0,0.0,96,-99.99,,,-99.99,,2013-03-10 10:51:00,
2013-03-10 05:01:00,20.0,19.0,-100.00,ENE,75,0.0,0.0,96,-99.99,,,-99.99,,2013-03-10 11:01:00,
2013-03-10 05:11:00,20.0,19.0,-100.00,NE,55,0.0,0.0,96,-99.99,,,-99.99,,2013-03-10 11:11:00,
2013-03-10 05:21:00,20.0,19.0,-100.00,East,85,0.0,0.0,96,-99.99,,,-99.99,,2013-03-10 11:21:00,
2013-03-10 05:31:00,19.0,19.0,-100.00,ENE,60,0.0,0.0,96,-99.99,,,-99.99,,2013-03-10 11:31:00,
2013-03-10 05:42:00,19.0,19.0,-100.00,ENE,60,0.0,0.0,96,-99.99,,,-99.99,,2013-03-10 11:42:00,
2013-03-10 05:52:00,19.0,18.0,-100.00,ENE,60,0.0,0.0,96,-99.99,,,-99.99,,2013-03-10 11:52:00,
2013-03-10 06:01:00,19.0,18.0,-100.00,ENE,60,0.0,0.0,96,-99.99,,,-99.99,,2013-03-10 12:01:00,
2013-03-10 06:11:00,19.0,18.0,-100.00,ENE,60,0.0,0.0,96,-99.99,,,-99.99,,2013-03-10 12:11:00,
2013-03-10 06:21:00,19.0,18.0,-100.00,ENE,75,0.0,0.0,96,-99.99,,,-99.99,,2013-03-10 12:21:00,
2013-03-10 06:31:00,19.0,18.0,-100.00,ENE,75,0.0,0.0,96,-99.99,,,-99.99,,2013-03-10 12:31:00,
2013-03-10 06:42:00,18.0,17.0,-100.00,NE,40,0.0,0.0,96,-99.99,,,-99.99,,2013-03-10 12:42:00,
2013-03-10 06:52:00,18.0,17.0,-100.00,NE,40,0.0,0.0,96,-99.99,,,-99.99,,2013-03-10 12:52:00,
2013-03-10 07:01:00,18.0,17.0,-100.00,ENE,70,0.0,0.0,96,-99.99,,,-99.99,,2013-03-10 13:01:00,
2013-03-10 07:11:00,18.0,17.0,-100.00,ENE,70,0.0,0.0,96,-99.99,,,-99.99,,2013-03-10 13:11:00,
2013-03-10 07:21:00,17.0,16.0,-100.00,East,90,0.0,0.0,96,-99.99,,,-99.99,,2013-03-10 13:21:00,
2013-03-10 07:31:00,17.0,16.0,-100.00,East,90,0.0,0.0,96,-99.99,,,-99.99,,2013-03-10 13:31:00,
2013-03-10 07:41:00,17.0,16.0,-100.00,ENE,70,0.0,0.0,96,-99.99,,,-99.99,,2013-03-10 13:41:00,
2013-03-10 07:52:00,17.0,16.0,-100.00,ENE,70,0.0,0.0,96,-99.99,,,-99.99,,2013-03-10 13:52:00,
2013-03-10 08:01:00,17.0,16.0,-100.00,NE,35,0.0,0.0,96,-99.99,,,-99.99,,2013-03-10 14:01:00,
2013-03-10 08:11:00,17.0,16.0,-100.00,NE,35,0.0,0.0,96,-99.99,,,-99.99,,2013-03-10 14:11:00,
2013-03-10 08:21:00,17.0,16.0,-100.00,NNE,25,0.0,0.0,95,-99.99,,,-99.99,,2013-03-10 14:21:00,
2013-03-10 08:31:00,17.0,16.0,-100.00,North,5,0.0,0.0,96,-99.99,,,-99.99,,2013-03-10 14:31:00,
2013-03-10 08:41:00,17.0,15.0,-100.00,NE,40,0.0,0.0,95,-99.99,,,-99.99,,2013-03-10 14:41:00,
2013-03-10 08:51:00,17.0,15.0,-100.00,NE,40,0.0,0.0,95,-99.99,,,-99.99,,2013-03-10 14:51:00,
2013-03-10 09:01:00,17.0,16.0,-100.00,South,185,0.0,0.0,95,-99.99,,,-99.99,,2013-03-10 15:01:00,
2013-03-10 09:11:00,17.0,16.0,-100.00,South,185,0.0,0.0,95,-99.99,,,-99.99,,2013-03-10 15:11:00,
2013-03-10 09:21:00,17.0,16.0,-100.00,NE,35,0.0,0.0,95,-99.99,,,-99.99,,2013-03-10 15:21:00,
2013-03-10 09:31:00,17.0,16.0,-100.00,NE,35,0.0,0.0,95,-99.99,,,-99.99,,2013-03-10 15:31:00,
2013-03-10 09:41:00,17.0,16.0,-100.00,East,85,0.0,0.0,95,-99.99,,,-99.99,,2013-03-10 15:41:00,
2013-03-10 09:52:00,18.0,17.0,-100.00,ENE,60,0.0,0.0,94,-99.99,,,-99.99,,2013-03-10 15:52:00,
2013-03-10 10:01:00,18.0,17.0,-100.00,ENE,60,0.0,0.0,94,-99.99,,,-99.99,,2013-03-10 16:01:00,
2013-03-10 10:11:00,19.0,18.0,-100.00,WNW,295,0.0,0.0,94,-99.99,,,-99.99,,2013-03-10 16:11:00,
2013-03-10 10:21:00,19.0,18.0,-100.00,East,90,0.0,0.0,94,-99.99,,,-99.99,,2013-03-10 16:21:00,
2013-03-10 10:31:00,19.0,18.0,-100.00,East,90,0.0,0.0,94,-99.99,,,-99.99,,2013-03-10 16:31:00,
2013-03-10 10:41:00,20.0,19.0,-100.00,East,90,0.0,0.0,94,-99.99,,,-99.99,,2013-03-10 16:41:00,
2013-03-10 10:51:00,20.0,19.0,-100.00,East,90,0.0,0.0,94,-99.99,,,-99.99,,2013-03-10 16:51:00,
2013-03-10 11:01:00,21.0,20.0,-100.00,East,90,0.0,0.0,94,-99.99,,,-99.99,,2013-03-10 17:01:00,
2013-03-10 11:11:00,21.0,20.0,-100.00,East,90,0.0,0.0,94,-99.99,,,-99.99,,2013-03-10 17:11:00,
2013-03-10 11:21:00,22.0,20.0,-100.00,SSW,210,0.0,0.0,94,-99.99,,,-99.99,,2013-03-10 17:21:00,
2013-03-10 11:31:00,22.0,20.0,-100.00,SSW,210,0.0,0.0,94,-99.99,,,-99.99,,2013-03-10 17:31:00,
2013-03-10 11:41:00,26.0,24.0,-100.00,South,190,0.0,0.0,93,-99.99,,,-99.99,,2013-03-10 17:41:00,
2013-03-10 11:51:00,26.0,24.0,-100.00,South,190,0.0,0.0,93,-99.99,,,-99.99,,2013-03-10 17:51:00,
2013-03-10 12:01:00,28.0,26.0,-100.00,SE,140,0.0,2.0,91,-99.99,,,-99.99,,2013-03-10 18:01:00,
2013-03-10 12:11:00,28.0,26.0,-100.00,SE,140,0.0,2.0,91,-99.99,,,-99.99,,2013-03-10 18:11:00,
2013-03-10 12:21:00,33.0,30.0,-100.00,SSE,165,0.0,1.0,87,-99.99,,,-99.99,,2013-03-10 18:21:00,
2013-03-10 12:31:00,33.0,30.0,-100.00,SSE,165,0.0,1.0,87,-99.99,,,-99.99,,2013-03-10 18:31:00,
2013-03-10 12:41:00,35.0,30.0,-100.00,SE,145,0.0,1.0,81,-99.99,,,-99.99,,2013-03-10 18:41:00,
2013-03-10 12:52:00,35.0,28.0,-100.00,SE,125,1.0,1.0,76,-99.99,,,-99.99,,2013-03-10 18:52:00,
2013-03-10 13:01:00,35.0,27.0,-100.00,SE,130,1.0,2.0,69,-99.99,,,-99.99,,2013-03-10 19:01:00,
2013-03-10 13:21:00,36.0,26.0,-100.00,South,175,1.0,2.0,64,-99.99,,,-99.99,,2013-03-10 19:21:00,
2013-03-10 13:31:00,36.0,26.0,-100.00,South,175,1.0,2.0,64,-99.99,,,-99.99,,2013-03-10 19:31:00,
2013-03-10 13:41:00,35.0,21.0,-100.00,SW,215,3.0,4.0,55,-99.99,,,-99.99,,2013-03-10 19:41:00,
2013-03-10 13:53:00,35.0,21.0,-100.00,SW,215,3.0,4.0,55,-99.99,,,-99.99,,2013-03-10 19:53:00,
2013-03-10 14:12:00,37.0,20.0,-100.00,SW,235,2.0,4.0,49,-99.99,,,-99.99,,2013-03-10 20:12:00,
2013-03-10 14:22:00,37.0,20.0,-100.00,SW,235,2.0,4.0,49,-99.99,,,-99.99,,2013-03-10 20:22:00,
2013-03-10 14:32:00,38.0,20.0,-100.00,SSW,200,2.0,4.0,48,-99.99,,,-99.99,,2013-03-10 20:32:00,
2013-03-10 14:42:00,39.0,20.0,-100.00,SSW,205,2.0,3.0,46,-99.99,,,-99.99,,2013-03-10 20:42:00,
2013-03-10 14:52:00,39.0,20.0,-100.00,SSW,205,2.0,3.0,46,-99.99,,,-99.99,,2013-03-10 20:52:00,
2013-03-10 15:02:00,39.0,20.0,-100.00,SSW,210,2.0,4.0,45,-99.99,,,-99.99,,2013-03-10 21:02:00,
2013-03-10 15:12:00,40.0,21.0,-100.00,SSW,205,1.0,4.0,45,-99.99,,,-99.99,,2013-03-10 21:12:00,
2013-03-10 15:22:00,40.0,20.0,-100.00,SW,215,2.0,6.0,44,-99.99,,,-99.99,,2013-03-10 21:22:00,
2013-03-10 15:32:00,40.0,20.0,-100.00,SW,215,2.0,6.0,44,-99.99,,,-99.99,,2013-03-10 21:32:00,
2013-03-10 15:42:00,40.0,20.0,-100.00,SW,225,4.0,6.0,44,-99.99,,,-99.99,,2013-03-10 21:42:00,
2013-03-10 15:51:00,40.0,20.0,-100.00,SW,225,4.0,6.0,44,-99.99,,,-99.99,,2013-03-10 21:51:00,
2013-03-10 16:02:00,40.0,20.0,-100.00,SW,230,3.0,6.0,44,-99.99,,,-99.99,,2013-03-10 22:02:00,
2013-03-10 16:12:00,40.0,20.0,-100.00,SW,230,3.0,6.0,44,-99.99,,,-99.99,,2013-03-10 22:12:00,
2013-03-10 16:21:00,40.0,21.0,-100.00,SW,215,4.0,11.0,44,-99.99,,,-99.99,,2013-03-10 22:21:00,
2013-03-10 16:32:00,40.0,21.0,-100.00,SW,215,4.0,11.0,44,-99.99,,,-99.99,,2013-03-10 22:32:00,
2013-03-10 16:42:00,41.0,22.0,-100.00,SSW,210,5.0,9.0,45,-99.99,,,-99.99,,2013-03-10 22:42:00,
2013-03-10 16:53:00,41.0,22.0,-100.00,SSW,210,5.0,9.0,45,-99.99,,,-99.99,,2013-03-10 22:53:00,
2013-03-10 17:02:00,40.0,21.0,-100.00,SW,215,3.0,6.0,46,-99.99,,,-99.99,,2013-03-10 23:02:00,
2013-03-10 17:12:00,40.0,21.0,-100.00,SW,215,3.0,6.0,46,-99.99,,,-99.99,,2013-03-10 23:12:00,
2013-03-10 17:21:00,39.0,21.0,-100.00,SSW,200,6.0,8.0,48,-99.99,,,-99.99,,2013-03-10 23:21:00,
2013-03-10 17:32:00,38.0,21.0,-100.00,SW,230,6.0,9.0,49,-99.99,,,-99.99,,2013-03-10 23:32:00,
2013-03-10 17:42:00,39.0,21.0,-100.00,SW,215,4.0,9.0,49,-99.99,,,-99.99,,2013-03-10 23:42:00,
2013-03-10 17:52:00,39.0,21.0,-100.00,WNW,285,3.0,9.0,49,-99.99,,,-99.99,,2013-03-10 23:52:00,
2013-03-10 18:02:00,39.0,21.0,-100.00,WNW,285,3.0,9.0,49,-99.99,,,-99.99,,2013-03-11 00:02:00,
2013-03-10 18:12:00,38.0,22.0,-100.00,West,275,3.0,6.0,50,-99.99,,,-99.99,,2013-03-11 00:12:00,
2013-03-10 18:22:00,38.0,22.0,-100.00,West,275,3.0,6.0,50,-99.99,,,-99.99,,2013-03-11 00:22:00,
2013-03-10 18:32:00,38.0,23.0,-100.00,SW,235,2.0,3.0,54,-99.99,,,-99.99,,2013-03-11 00:32:00,
2013-03-10 18:42:00,37.0,24.0,-100.00,WSW,240,2.0,5.0,59,-99.99,,,-99.99,,2013-03-11 00:42:00,
2013-03-10 18:52:00,37.0,24.0,-100.00,WSW,240,2.0,5.0,59,-99.99,,,-99.99,,2013-03-11 00:52:00,
2013-03-10 19:02:00,36.0,25.0,-100.00,WSW,240,4.0,9.0,63,-99.99,,,-99.99,,2013-03-11 01:02:00,
2013-03-10 19:12:00,36.0,26.0,-100.00,WSW,245,4.0,7.0,66,-99.99,,,-99.99,,2013-03-11 01:12:00,
2013-03-10 19:32:00,35.0,26.0,-100.00,SW,235,4.0,7.0,67,-99.99,,,-99.99,,2013-03-11 01:32:00,
2013-03-10 19:42:00,35.0,26.0,-100.00,SW,235,4.0,7.0,67,-99.99,,,-99.99,,2013-03-11 01:42:00,
2013-03-10 19:52:00,35.0,27.0,-100.00,SW,235,4.0,7.0,70,-99.99,,,-99.99,,2013-03-11 01:52:00,
2013-03-10 20:02:00,35.0,27.0,-100.00,SW,235,4.0,7.0,70,-99.99,,,-99.99,,2013-03-11 02:02:00,
2013-03-10 20:12:00,34.0,27.0,-100.00,SW,235,5.0,6.0,72,-99.99,,,-99.99,,2013-03-11 02:12:00,
2013-03-10 20:22:00,34.0,27.0,-100.00,SW,230,4.0,7.0,74,-99.99,,,-99.99,,2013-03-11 02:22:00,
2013-03-10 20:32:00,34.0,27.0,-100.00,WSW,245,7.0,9.0,75,-99.99,,,-99.99,,2013-03-11 02:32:00,
2013-03-10 20:42:00,33.0,27.0,-100.00,WSW,245,7.0,9.0,77,-99.99,,,-99.99,,2013-03-11 02:42:00,
2013-03-10 20:52:00,33.0,27.0,-100.00,WSW,255,7.0,9.0,77,-99.99,,,-99.99,,2013-03-11 02:52:00,
2013-03-10 21:02:00,33.0,27.0,-100.00,WSW,255,6.0,9.0,77,-99.99,,,-99.99,,2013-03-11 03:02:00,
2013-03-10 21:11:00,33.0,27.0,-100.00,WSW,255,6.0,8.0,78,-99.99,,,-99.99,,2013-03-11 03:11:00,
2013-03-10 21:21:00,33.0,27.0,-100.00,WSW,255,6.0,8.0,78,-99.99,,,-99.99,,2013-03-11 03:21:00,
2013-03-10 21:31:00,32.0,27.0,-100.00,West,260,6.0,7.0,80,-99.99,,,-99.99,,2013-03-11 03:31:00,
2013-03-10 21:42:00,32.0,27.0,-100.00,SW,235,6.0,9.0,80,-99.99,,,-99.99,,2013-03-11 03:42:00,
2013-03-10 21:52:00,32.0,27.0,-100.00,SE,140,7.0,8.0,80,-99.99,,,-99.99,,2013-03-11 03:52:00,
2013-03-10 22:02:00,32.0,27.0,-100.00,WSW,255,6.0,7.0,81,-99.99,,,-99.99,,2013-03-11 04:02:00,
2013-03-10 22:12:00,32.0,27.0,-100.00,WSW,255,6.0,7.0,81,-99.99,,,-99.99,,2013-03-11 04:12:00,
2013-03-10 22:22:00,32.0,27.0,-100.00,SW,235,6.0,7.0,81,-99.99,,,-99.99,,2013-03-11 04:22:00,
2013-03-10 22:32:00,32.0,27.0,-100.00,SW,235,6.0,7.0,81,-99.99,,,-99.99,,2013-03-11 04:32:00,
2013-03-10 22:42:00,31.0,26.0,-100.00,WSW,245,6.0,7.0,80,-99.99,,,-99.99,,2013-03-11 04:42:00,
2013-03-10 22:53:00,31.0,26.0,-100.00,SSE,150,6.0,9.0,80,-99.99,,,-99.99,,2013-03-11 04:53:00,
2013-03-10 23:02:00,31.0,26.0,-100.00,SSE,150,6.0,9.0,80,-99.99,,,-99.99,,2013-03-11 05:02:00,
2013-03-10 23:11:00,31.0,26.0,-100.00,WNW,285,5.0,7.0,80,-99.99,,,-99.99,,2013-03-11 05:11:00,
2013-03-10 23:22:00,31.0,26.0,-100.00,WNW,285,5.0,7.0,80,-99.99,,,-99.99,,2013-03-11 05:22:00,
2013-03-10 23:32:00,30.0,25.0,-100.00,WSW,250,4.0,9.0,80,-99.99,,,-99.99,,2013-03-11 05:32:00,
2013-03-10 23:42:00,30.0,25.0,-100.00,WSW,250,4.0,9.0,80,-99.99,,,-99.99,,2013-03-11 05:42:00,
2013-03-10 23:51:00,30.0,25.0,-100.00,West,270,6.0,7.0,80,-99.99,,,-99.99,,2013-03-11 05:51:00,